Strona główna
METAR-TAF:

METAR-TAF

Lotnisko :

Port lotniczy Arnhem-Deelen

Arnhem, Holandia

Szerokość geograficzna: 52-04N, Długość geograficzna: 005-53E, wysokość: 48 m

Aktualna obserwacja pogody

Raport powstał 37 minut temu, godzina 11:55 UTC
Wiatr 3 kt od południowo-południowy wschód, zmienny między wschód i zachód
Temperatura 21°C
Wilgotność 56%
Ciśnienie 1015 hPa
Widzialność 10 km lub więcej
Rozproszone chmury na wysokości 3500 ft
Przerywane chmury na wysokości 4400 ft
Przerywane chmury na wysokości 5200 ft

METAR: EHDL 171155Z AUTO 16003KT 100V260 9999 SCT035 BKN044 BKN052 21/12 Q1015 BLU

czas: 14:32 (12:32 UTC)


TAF: brakujący

Obserwacja i prognoza pogody dla ponad 4000 lotnisk (raport METAR i TAF).

Dostępne stacje oznaczono żółtymi i czerwonymi punktami na mapie.

Najedź kursorem aby zobaczyć nazwę stacji.

Kliknij aby zobaczyć obserwacje i prognozy pogody.

Aby zmienić mapę: kliknij na zielony przycisk z czarnym krzyżykiem, aby powiększyć; na zielony przycisk z myślnikiem, aby pomniejszyć; na zielone strzałki, aby przejść do map sąsiednich.


METAR-TAF: